Time;durP1;ratioP1;P1;durP2;ratioP2;P2;SDS_P1;SDS_P2;PMS_P1;PMS_P2;Temp;Humidity;BMP_temperature;BMP_pressure;BME280_temperature;BME280_humidity;BME280_pressure;Samples;Min_cycle;Max_cycle;Signal;HPM_P1;HPM_P2
2022/05/20 00:01:05;;;;;;;;;1.33;1.00;;;;;38.65;19.63;101527.81;4916228;28;45407;-74
2022/05/20 00:03:31;;;;;;;;;3.33;2.33;;;;;38.39;19.96;101523.53;4914992;28;45495;-74
2022/05/20 00:05:59;;;;;;;;;1.67;1.67;;;;;38.37;19.95;101527.47;4915765;28;45371;-74
2022/05/20 00:08:26;;;;;;;;;1.00;1.00;;;;;38.38;20.08;101521.81;4915935;28;45361;-74
2022/05/20 00:10:53;;;;;;;;;1.00;1.00;;;;;38.47;19.88;101520.13;4915083;28;45466;-74
2022/05/20 00:13:20;;;;;;;;;3.00;3.00;;;;;38.38;19.52;101510.72;4915966;28;45621;-74
2022/05/20 00:15:46;;;;;;;;;2.00;2.00;;;;;38.48;19.24;101523.75;4916142;28;45297;-74
2022/05/20 00:18:11;;;;;;;;;2.00;2.00;;;;;38.32;19.75;101504.84;4915781;28;45455;-74
2022/05/20 00:20:37;;;;;;;;;2.33;2.33;;;;;38.33;19.87;101501.03;4915887;28;45322;-74
2022/05/20 00:23:03;;;;;;;;;1.67;1.00;;;;;38.47;19.82;101502.59;4916351;28;45601;-74
2022/05/20 00:25:47;;;;;;;;;1.00;1.00;;;;;38.49;19.26;101482.03;4915810;28;46152;-74
2022/05/20 00:28:22;;;;;;;;;1.00;1.00;;;;;38.52;19.09;101481.75;4915361;28;45277;-74
2022/05/20 00:30:56;;;;;;;;;1.33;1.33;;;;;38.55;19.97;101495.38;4916083;28;45444;-74
2022/05/20 00:33:27;;;;;;;;;1.00;1.00;;;;;38.55;19.36;101489.81;4913591;28;45591;-74
2022/05/20 00:35:52;;;;;;;;;1.00;1.00;;;;;38.50;19.62;101486.56;4915664;28;46998;-74
2022/05/20 00:38:18;;;;;;;;;2.00;2.00;;;;;38.42;19.70;101494.69;4915588;28;45388;-74
2022/05/20 00:40:45;;;;;;;;;1.00;1.00;;;;;38.39;19.78;101486.66;4916103;28;45773;-74
2022/05/20 00:43:35;;;;;;;;;1.33;1.00;;;;;38.40;19.12;101492.06;4915810;28;45397;-74
2022/05/20 00:46:07;;;;;;;;;1.00;1.00;;;;;38.48;18.96;101490.50;4915518;28;46653;-74
2022/05/20 00:48:34;;;;;;;;;1.00;1.00;;;;;38.43;19.07;101479.81;4915545;28;45412;-74
2022/05/20 00:51:11;;;;;;;;;1.33;0.00;;;;;38.22;19.71;101482.59;4915660;28;45348;-74
2022/05/20 00:54:13;;;;;;;;;1.00;1.00;;;;;38.21;19.45;101484.47;4915678;28;45590;-74
2022/05/20 00:56:46;;;;;;;;;2.00;1.00;;;;;38.14;19.18;101485.09;4915541;28;46297;-74
2022/05/20 00:59:19;;;;;;;;;2.00;1.67;;;;;38.12;19.32;101479.72;4915566;28;45415;-74
2022/05/20 01:01:48;;;;;;;;;2.00;2.00;;;;;38.28;19.39;101475.63;4915732;28;45432;-74
2022/05/20 01:04:15;;;;;;;;;2.00;1.00;;;;;38.19;19.53;101469.84;4915363;28;45408;-74
2022/05/20 01:06:41;;;;;;;;;1.00;1.00;;;;;38.20;19.55;101474.38;4915438;28;45435;-74
2022/05/20 01:09:06;;;;;;;;;1.00;1.00;;;;;38.14;19.85;101474.03;4915460;28;45615;-74
2022/05/20 01:11:32;;;;;;;;;2.00;1.33;;;;;38.14;19.01;101468.50;4914175;28;45380;-74
2022/05/20 01:13:57;;;;;;;;;1.00;1.00;;;;;37.98;18.88;101442.13;4915354;28;45318;-74
2022/05/20 01:16:23;;;;;;;;;2.00;1.00;;;;;38.12;19.23;101465.84;4915288;28;45555;-74
2022/05/20 01:18:53;;;;;;;;;1.00;1.00;;;;;38.05;19.48;101462.72;4915052;28;45479;-74
2022/05/20 01:21:18;;;;;;;;;1.00;1.00;;;;;38.12;18.75;101446.47;4915565;28;45332;-74
2022/05/20 01:23:44;;;;;;;;;1.00;1.00;;;;;38.19;18.59;101453.22;4915571;28;45428;-74
2022/05/20 01:26:09;;;;;;;;;1.00;1.00;;;;;38.06;19.02;101444.22;4914952;28;45595;-73
2022/05/20 01:28:35;;;;;;;;;1.00;1.00;;;;;38.07;18.72;101445.97;4914884;28;45368;-73
2022/05/20 01:31:14;;;;;;;;;1.00;1.00;;;;;38.02;18.67;101442.75;4915509;28;45396;-74
2022/05/20 01:33:43;;;;;;;;;1.00;0.67;;;;;38.06;19.11;101439.56;4914928;28;45447;-74
2022/05/20 01:36:12;;;;;;;;;1.00;1.00;;;;;38.07;18.83;101438.56;4914964;28;45400;-74
2022/05/20 01:38:37;;;;;;;;;3.33;1.67;;;;;38.05;18.83;101425.84;4913565;28;45352;-74
2022/05/20 01:41:10;;;;;;;;;2.00;2.00;;;;;38.02;18.58;101409.50;4915184;28;45419;-74
2022/05/20 01:44:01;;;;;;;;;1.00;1.00;;;;;38.04;19.59;101415.78;4915859;28;45368;-74
2022/05/20 01:46:41;;;;;;;;;1.33;1.33;;;;;38.09;18.90;101422.66;4917612;28;45351;-73
2022/05/20 01:49:16;;;;;;;;;1.00;1.00;;;;;38.08;19.44;101420.03;4917334;28;45432;-74
2022/05/20 01:52:03;;;;;;;;;2.67;1.00;;;;;37.90;20.45;101423.38;4916717;28;45275;-74
2022/05/20 01:54:40;;;;;;;;;1.00;1.00;;;;;37.87;19.14;101409.81;4917743;28;45328;-73
2022/05/20 01:57:17;;;;;;;;;2.00;1.00;;;;;37.83;19.66;101393.59;4917685;28;46660;-74
2022/05/20 01:59:50;;;;;;;;;2.00;1.00;;;;;37.93;19.58;101398.22;4916465;28;45522;-74
2022/05/20 02:02:25;;;;;;;;;1.67;1.00;;;;;37.99;18.92;101395.91;4917493;28;45386;-73
2022/05/20 02:05:31;;;;;;;;;1.00;1.00;;;;;37.93;19.44;101398.22;4917697;28;45364;-74
2022/05/20 02:08:04;;;;;;;;;1.33;1.00;;;;;37.95;19.45;101387.00;4918822;28;48747;-74
2022/05/20 02:11:02;;;;;;;;;1.00;1.00;;;;;37.97;19.87;101386.84;4917325;28;45427;-74
2022/05/20 02:13:31;;;;;;;;;1.00;1.00;;;;;37.92;19.50;101379.81;4956848;28;46027;-73
2022/05/20 02:16:03;;;;;;;;;1.00;1.00;;;;;37.84;19.67;101382.38;4956699;28;45520;-74
2022/05/20 02:18:34;;;;;;;;;2.67;1.00;;;;;37.96;19.50;101385.09;4940510;28;47985;-74
2022/05/20 02:21:09;;;;;;;;;2.33;2.33;;;;;37.95;19.91;101375.03;4956991;28;45418;-73
2022/05/20 02:23:39;;;;;;;;;1.00;1.00;;;;;37.99;19.40;101374.63;4957026;28;45512;-73
2022/05/20 02:26:12;;;;;;;;;1.67;1.33;;;;;38.02;19.45;101379.91;4957052;28;45532;-73
2022/05/20 02:28:42;;;;;;;;;2.67;1.00;;;;;38.03;20.12;101378.00;4956347;28;45448;-73
2022/05/20 02:31:13;;;;;;;;;2.00;2.00;;;;;37.87;19.41;101371.03;4956768;28;45840;-73
2022/05/20 02:33:39;;;;;;;;;1.00;1.00;;;;;37.79;19.98;101354.22;4957019;28;45493;-73
2022/05/20 02:36:17;;;;;;;;;2.00;1.00;;;;;37.90;19.96;101362.44;4956794;28;45483;-73
2022/05/20 02:38:42;;;;;;;;;3.67;1.00;;;;;37.83;19.41;101358.47;4956302;28;45430;-73
2022/05/20 02:41:08;;;;;;;;;3.00;1.33;;;;;38.03;19.79;101372.44;4956898;28;45465;-73
2022/05/20 02:43:34;;;;;;;;;3.00;2.00;;;;;38.21;19.08;101368.06;4956684;28;45445;-73
2022/05/20 02:45:59;;;;;;;;;1.67;1.67;;;;;38.17;19.24;101366.56;4956516;28;45645;-73
2022/05/20 02:48:25;;;;;;;;;2.00;1.00;;;;;38.09;19.39;101360.84;4956233;28;45474;-73
2022/05/20 02:50:51;;;;;;;;;2.00;2.00;;;;;38.09;19.50;101366.38;4928945;28;45343;-73
2022/05/20 02:53:17;;;;;;;;;1.00;1.00;;;;;38.09;19.36;101364.47;4917151;28;45345;-73
2022/05/20 02:55:42;;;;;;;;;1.00;1.00;;;;;38.08;19.41;101359.94;4915177;28;45727;-74
2022/05/20 02:58:07;;;;;;;;;1.67;1.00;;;;;37.77;19.81;101333.22;4916884;28;45379;-73
2022/05/20 03:06:01;;;;;;;;;2.00;2.00;;;;;37.85;19.88;101369.41;4917079;28;45281;-73
2022/05/20 03:08:26;;;;;;;;;1.00;1.00;;;;;37.92;19.60;101365.13;4916469;28;45936;-73
2022/05/20 03:10:52;;;;;;;;;1.33;1.33;;;;;37.92;19.62;101352.13;4916739;28;45331;-73
2022/05/20 03:13:17;;;;;;;;;2.00;2.00;;;;;38.02;19.40;101359.63;4916737;28;45410;-74
2022/05/20 03:15:44;;;;;;;;;3.00;3.00;;;;;38.04;19.42;101364.00;4916688;28;45344;-74
2022/05/20 03:18:11;;;;;;;;;1.00;1.00;;;;;37.96;19.96;101349.09;4915422;28;47031;-74
2022/05/20 03:20:38;;;;;;;;;1.00;1.00;;;;;37.95;19.50;101359.28;4916618;28;45422;-73
2022/05/20 03:23:05;;;;;;;;;1.25;1.25;;;;;38.02;19.60;101365.19;4916889;28;45399;-73
2022/05/20 03:25:31;;;;;;;;;2.00;2.00;;;;;37.93;20.19;101344.69;4916709;28;45411;-73
2022/05/20 03:27:57;;;;;;;;;2.00;2.00;;;;;38.01;19.72;101358.75;4915029;28;48204;-73
2022/05/20 03:30:23;;;;;;;;;1.67;1.67;;;;;38.01;20.07;101361.50;4916328;28;45452;-74
2022/05/20 03:32:48;;;;;;;;;4.00;1.67;;;;;38.00;19.84;101367.19;4916601;28;45327;-73
2022/05/20 03:35:13;;;;;;;;;2.00;2.00;;;;;37.93;19.57;101364.97;4916762;28;45510;-73
2022/05/20 03:37:39;;;;;;;;;2.00;2.00;;;;;38.04;19.29;101366.78;4916383;28;45333;-74
2022/05/20 03:40:05;;;;;;;;;3.00;3.00;;;;;38.02;19.39;101354.97;4916354;28;45427;-74
2022/05/20 03:42:31;;;;;;;;;1.00;1.00;;;;;38.07;19.57;101355.44;4916538;28;45376;-73
2022/05/20 03:44:57;;;;;;;;;1.50;1.50;;;;;38.05;19.08;101353.81;4916402;28;45433;-73
2022/05/20 03:47:22;;;;;;;;;1.67;1.67;;;;;37.96;19.60;101346.31;4916302;28;45815;-74
2022/05/20 03:49:47;;;;;;;;;2.00;2.00;;;;;38.05;20.22;101338.06;4915115;28;46111;-73
2022/05/20 03:52:14;;;;;;;;;3.00;1.67;;;;;38.03;19.94;101339.22;4916394;28;45421;-73
2022/05/20 03:54:40;;;;;;;;;1.33;1.33;;;;;37.94;19.60;101346.44;4916315;28;45385;-73
2022/05/20 03:57:06;;;;;;;;;2.00;2.00;;;;;37.86;19.95;101355.44;4916315;28;46384;-74
2022/05/20 03:59:36;;;;;;;;;1.67;1.67;;;;;37.70;20.09;101346.69;4914474;28;45339;-74
2022/05/20 04:02:09;;;;;;;;;1.00;1.00;;;;;37.61;20.13;101333.63;4916340;28;45397;-75
2022/05/20 04:04:37;;;;;;;;;1.00;1.00;;;;;37.75;20.17;101336.09;4916393;28;45562;-74
2022/05/20 04:07:24;;;;;;;;;2.00;2.00;;;;;37.73;20.06;101329.81;4915021;28;45426;-74
2022/05/20 04:09:49;;;;;;;;;1.00;1.00;;;;;37.71;19.55;101318.00;4916109;28;45437;-74
2022/05/20 04:12:28;;;;;;;;;2.00;2.00;;;;;37.69;19.60;101331.09;4915880;28;45478;-73
2022/05/20 04:14:55;;;;;;;;;1.00;1.00;;;;;37.61;19.76;101328.09;4916228;28;45384;-74
2022/05/20 04:17:21;;;;;;;;;1.67;1.67;;;;;37.69;19.96;101325.53;4915844;28;46110;-74
2022/05/20 04:19:46;;;;;;;;;1.00;1.00;;;;;37.70;20.18;101330.06;4915848;28;45377;-74
2022/05/20 04:22:14;;;;;;;;;2.33;1.33;;;;;37.73;20.36;101313.19;4916352;28;45353;-74
2022/05/20 04:24:39;;;;;;;;;2.33;1.00;;;;;37.70;19.62;101302.38;4916028;28;45481;-73
2022/05/20 04:27:05;;;;;;;;;2.00;2.00;;;;;37.75;20.10;101325.03;4915559;28;45365;-73
2022/05/20 04:29:31;;;;;;;;;2.00;1.00;;;;;37.58;19.76;101319.06;4915516;28;45336;-74
2022/05/20 04:31:56;;;;;;;;;1.00;1.00;;;;;37.61;20.14;101325.31;4916037;28;45419;-69
2022/05/20 04:34:22;;;;;;;;;1.67;1.67;;;;;37.73;20.49;101344.50;4921332;28;45587;-69
2022/05/20 04:36:48;;;;;;;;;1.00;1.00;;;;;37.67;19.80;101333.13;4934957;28;45383;-69
2022/05/20 04:39:14;;;;;;;;;2.00;2.00;;;;;37.77;19.84;101328.56;4934940;28;45474;-69
2022/05/20 04:47:23;;;;;;;;;2.00;2.00;;;;;37.58;20.00;101349.53;4934914;28;45728;-70
2022/05/20 04:49:49;;;;;;;;;2.00;2.00;;;;;37.68;20.60;101346.81;4934675;28;45478;-70
2022/05/20 04:52:14;;;;;;;;;2.00;2.00;;;;;37.81;20.40;101352.19;4934519;28;45324;-70
2022/05/20 04:54:49;;;;;;;;;3.00;2.00;;;;;37.77;20.02;101356.25;4910472;28;45228;-69
2022/05/20 04:57:23;;;;;;;;;2.00;2.00;;;;;37.82;20.42;101353.97;4934517;28;45448;-68
2022/05/20 04:59:48;;;;;;;;;3.67;3.00;;;;;37.83;20.46;101355.69;4925704;28;45449;-69
2022/05/20 05:02:14;;;;;;;;;2.33;2.33;;;;;37.86;19.88;101358.22;4917097;28;45390;-69
2022/05/20 05:04:39;;;;;;;;;2.33;2.33;;;;;37.85;20.03;101374.94;4930892;28;45304;-67
2022/05/20 05:07:09;;;;;;;;;2.00;2.00;;;;;37.99;20.12;101382.03;4911492;28;46451;-69
2022/05/20 05:09:36;;;;;;;;;2.00;2.00;;;;;38.01;19.96;101368.94;4924679;28;45774;-68
2022/05/20 05:12:03;;;;;;;;;3.00;2.00;;;;;38.03;20.07;101358.59;4907515;28;45448;-68
2022/05/20 05:14:31;;;;;;;;;2.00;2.00;;;;;38.02;19.77;101367.94;4913355;28;45523;-70
2022/05/20 05:16:57;;;;;;;;;1.00;1.00;;;;;37.88;20.42;101375.56;4915290;28;46226;-67
2022/05/20 05:19:22;;;;;;;;;4.00;2.00;;;;;37.65;20.85;101377.56;4920308;28;45754;-68
2022/05/20 05:21:47;;;;;;;;;2.00;2.00;;;;;37.68;20.63;101380.06;4906746;28;45451;-69
2022/05/20 05:24:12;;;;;;;;;4.67;3.00;;;;;37.79;20.74;101370.81;4940450;28;48924;-69
2022/05/20 05:26:40;;;;;;;;;3.00;3.00;;;;;37.86;20.14;101365.63;4937989;28;45486;-69
2022/05/20 05:29:07;;;;;;;;;3.00;2.00;;;;;37.68;20.39;101332.09;4956411;28;46734;-67
2022/05/20 05:31:32;;;;;;;;;3.00;3.00;;;;;37.74;20.65;101338.00;4969891;28;45602;-68
2022/05/20 05:34:01;;;;;;;;;2.00;2.00;;;;;37.88;20.23;101363.63;4979864;28;45579;-67
2022/05/20 05:36:27;;;;;;;;;3.00;3.00;;;;;37.91;20.61;101363.34;4986571;28;46181;-67
2022/05/20 05:38:52;;;;;;;;;1.00;1.00;;;;;37.88;20.20;101360.84;4913553;28;45442;-67
2022/05/20 05:41:19;;;;;;;;;3.67;3.67;;;;;37.92;20.25;101365.97;4909433;28;45362;-67
2022/05/20 05:43:45;;;;;;;;;3.67;2.33;;;;;37.97;20.99;101360.03;4916179;28;45383;-67
2022/05/20 05:46:10;;;;;;;;;2.00;2.00;;;;;37.80;20.51;101324.66;4918655;28;45424;-67
2022/05/20 05:48:35;;;;;;;;;3.33;2.67;;;;;37.92;20.19;101342.94;4907051;28;45315;-67
2022/05/20 05:51:02;;;;;;;;;3.00;2.00;;;;;37.72;20.49;101330.81;4914469;28;45431;-69
2022/05/20 05:53:27;;;;;;;;;2.67;2.00;;;;;37.82;20.66;101323.50;4897595;28;45342;-68
2022/05/20 05:55:59;;;;;;;;;4.00;3.00;;;;;37.81;20.48;101310.66;4915009;28;46206;-70
2022/05/20 05:58:26;;;;;;;;;2.00;2.00;;;;;37.79;21.25;101292.41;4922535;28;45450;-70
2022/05/20 06:00:53;;;;;;;;;4.00;2.00;;;;;37.79;20.59;101293.28;4895507;28;45589;-71
2022/05/20 06:03:18;;;;;;;;;2.33;2.33;;;;;37.66;21.08;101309.22;4912702;28;45330;-69
2022/05/20 06:05:45;;;;;;;;;5.00;3.67;;;;;37.72;20.84;101317.84;4913579;28;46501;-69
2022/05/20 06:08:10;;;;;;;;;2.00;2.00;;;;;37.71;21.10;101334.59;4914300;28;45412;-69
2022/05/20 06:10:36;;;;;;;;;2.33;2.33;;;;;37.70;20.91;101330.94;4921471;28;45416;-69
2022/05/20 06:13:02;;;;;;;;;3.00;2.00;;;;;37.64;21.55;101342.56;4914540;28;45644;-69
2022/05/20 06:15:28;;;;;;;;;2.00;2.00;;;;;37.45;21.04;101334.97;4914226;28;46232;-69
2022/05/20 06:17:55;;;;;;;;;3.00;2.00;;;;;37.59;21.33;101381.69;4912500;28;45361;-69
2022/05/20 06:20:23;;;;;;;;;4.00;3.00;;;;;37.60;21.34;101385.38;4914150;28;45400;-69
2022/05/20 06:22:49;;;;;;;;;5.67;3.00;;;;;37.70;21.64;101399.31;4914288;28;45432;-69
2022/05/20 06:25:14;;;;;;;;;2.00;2.00;;;;;37.76;22.10;101398.78;4926353;28;45462;-70
2022/05/20 06:27:40;;;;;;;;;5.00;4.00;;;;;37.74;22.10;101385.06;4918710;28;45423;-70
2022/05/20 06:30:08;;;;;;;;;4.00;4.00;;;;;37.76;22.54;101384.94;4933694;28;45526;-70
2022/05/20 06:32:35;;;;;;;;;3.00;2.33;;;;;37.81;23.63;101354.97;4919785;28;46370;-72
2022/05/20 06:40:42;;;;;;;;;4.00;4.00;;;;;37.88;23.25;101281.41;4902808;28;45436;-69
2022/05/20 06:43:07;;;;;;;;;5.00;3.67;;;;;37.92;23.15;101255.19;4906286;28;45465;-70
2022/05/20 06:45:33;;;;;;;;;6.00;3.67;;;;;38.11;23.50;101211.97;4929258;28;46993;-69
2022/05/20 06:47:58;;;;;;;;;4.00;4.00;;;;;37.99;24.16;101152.13;4902342;28;45641;-68
2022/05/20 06:50:24;;;;;;;;;6.00;5.00;;;;;37.98;23.54;101191.94;4927295;28;46574;-67
2022/05/20 06:52:49;;;;;;;;;5.00;5.00;;;;;37.83;23.26;101188.66;4913861;28;46535;-67
2022/05/20 06:55:15;;;;;;;;;8.00;5.00;;;;;37.90;23.31;101207.34;4900577;28;47257;-67
2022/05/20 06:57:40;;;;;;;;;5.33;5.33;;;;;37.71;23.91;101215.56;4907128;28;45576;-67
2022/05/20 07:00:10;;;;;;;;;6.33;3.33;;;;;37.35;23.91;101195.66;4896191;28;45845;-67
2022/05/20 07:02:36;;;;;;;;;4.67;4.67;;;;;37.19;24.57;101166.53;4910847;28;46113;-67
2022/05/20 07:05:03;;;;;;;;;7.67;5.67;;;;;37.08;24.20;101131.50;4901731;28;46871;-67
2022/05/20 07:07:29;;;;;;;;;5.00;4.67;;;;;37.47;24.85;101152.16;4892788;28;45802;-67
2022/05/20 07:09:54;;;;;;;;;5.00;5.00;;;;;37.82;24.42;101149.03;4892755;28;45859;-67
2022/05/20 07:12:20;;;;;;;;;6.00;5.00;;;;;37.98;23.93;101133.78;4909654;28;45480;-68
2022/05/20 07:14:45;;;;;;;;;6.33;4.33;;;;;38.09;23.88;101105.97;4913433;28;46364;-71
2022/05/20 07:17:18;;;;;;;;;6.67;4.00;;;;;38.02;24.23;101072.41;4902865;28;45627;-70
2022/05/20 07:19:44;;;;;;;;;5.00;5.00;;;;;38.17;24.09;101075.63;4915163;28;45522;-69
2022/05/20 07:22:09;;;;;;;;;6.67;5.67;;;;;38.21;23.76;101063.28;4907495;28;46080;-69
2022/05/20 07:24:36;;;;;;;;;8.33;6.00;;;;;38.29;23.69;101064.47;4900027;28;45517;-69
2022/05/20 07:27:02;;;;;;;;;8.00;5.67;;;;;38.36;24.10;101058.19;4932458;28;45471;-69
2022/05/20 07:29:27;;;;;;;;;7.00;5.00;;;;;38.19;24.00;101067.19;4902411;28;45555;-69
2022/05/20 07:31:52;;;;;;;;;5.00;5.00;;;;;38.00;24.18;101107.66;4904558;28;45435;-69
2022/05/20 07:34:18;;;;;;;;;5.00;5.00;;;;;37.77;24.63;101118.09;4910876;28;50117;-69
2022/05/20 07:36:43;;;;;;;;;5.33;5.33;;;;;37.62;24.25;101116.69;4947441;28;45974;-69
2022/05/20 07:39:09;;;;;;;;;7.67;6.00;;;;;37.69;24.38;101101.28;4914382;28;45449;-69
2022/05/20 07:41:35;;;;;;;;;6.00;6.00;;;;;37.93;23.99;101110.16;4911676;28;45826;-70
2022/05/20 07:44:01;;;;;;;;;6.00;6.00;;;;;38.06;24.76;101109.00;4919005;28;46060;-70
2022/05/20 07:46:28;;;;;;;;;9.00;6.00;;;;;38.13;24.40;101115.75;4940459;28;45518;-68
2022/05/20 07:48:53;;;;;;;;;6.33;6.33;;;;;38.28;24.52;101132.84;4901599;28;45842;-68
2022/05/20 07:51:22;;;;;;;;;7.33;6.00;;;;;38.41;24.27;101157.53;4913372;28;45459;-69
2022/05/20 07:53:56;;;;;;;;;7.67;7.33;;;;;38.41;25.22;101169.50;4902632;28;45707;-69
2022/05/20 07:56:29;;;;;;;;;6.67;6.67;;;;;38.36;24.72;101165.41;4915933;28;45798;-69
2022/05/20 07:59:12;;;;;;;;;7.67;7.67;;;;;38.33;24.30;101179.53;4898292;28;45481;-68
2022/05/20 08:01:41;;;;;;;;;6.67;6.67;;;;;38.40;24.13;101230.63;4900053;28;45527;-69
2022/05/20 08:07:01;;;;;;;;;8.33;7.33;;;;;38.65;24.35;101206.16;4923058;28;45967;-69
2022/05/20 08:09:27;;;;;;;;;9.00;8.00;;;;;38.62;24.03;101223.94;4904182;28;45410;-68
2022/05/20 08:11:53;;;;;;;;;7.33;7.00;;;;;38.69;24.67;101177.16;4901831;28;45504;-68
2022/05/20 08:14:19;;;;;;;;;9.33;9.33;;;;;38.81;24.77;101184.31;4907735;28;46278;-69
2022/05/20 08:16:44;;;;;;;;;9.00;9.00;;;;;38.79;24.62;101164.16;4902844;28;45457;-70
2022/05/20 08:19:10;;;;;;;;;9.33;9.33;;;;;38.82;24.65;101169.44;4935207;28;45391;-68
2022/05/20 08:21:36;;;;;;;;;12.33;11.67;;;;;38.70;24.98;101199.19;4921641;28;45395;-68
2022/05/20 08:24:01;;;;;;;;;8.67;8.00;;;;;38.53;25.09;101175.78;4926554;28;46270;-67
2022/05/20 08:26:27;;;;;;;;;10.33;9.67;;;;;38.51;25.29;101185.25;4916120;28;45554;-68
2022/05/20 08:28:52;;;;;;;;;8.67;8.67;;;;;38.23;25.62;101187.84;4929839;28;45416;-67
2022/05/20 08:31:17;;;;;;;;;13.00;10.00;;;;;38.35;25.40;101175.59;4948961;28;45594;-68
2022/05/20 08:33:43;;;;;;;;;9.00;9.00;;;;;38.59;24.95;101164.16;4914613;28;47189;-67
2022/05/20 08:36:09;;;;;;;;;10.00;10.00;;;;;38.74;25.28;101163.75;4896923;28;45522;-70
2022/05/20 08:38:34;;;;;;;;;12.00;10.67;;;;;38.76;25.08;101165.34;4920704;28;45504;-67
2022/05/20 08:41:01;;;;;;;;;8.33;6.33;;;;;38.79;25.67;101169.69;4918274;28;45407;-67
2022/05/20 08:43:29;;;;;;;;;12.33;10.00;;;;;38.85;24.69;101176.56;4915463;28;45647;-70
2022/05/20 08:45:55;;;;;;;;;11.67;11.67;;;;;38.84;24.52;101195.13;4918298;28;45429;-71
2022/05/20 08:48:20;;;;;;;;;13.00;11.00;;;;;38.63;24.71;101202.66;4907144;28;45590;-69
2022/05/20 08:50:53;;;;;;;;;13.67;9.67;;;;;38.87;24.40;101264.16;4923328;28;45551;-67
2022/05/20 08:53:25;;;;;;;;;13.00;10.00;;;;;38.85;24.28;101316.16;4905261;28;46106;-69
2022/05/20 08:55:50;;;;;;;;;11.00;11.00;;;;;38.74;24.97;101342.09;4908617;28;46083;-70
2022/05/20 08:58:23;;;;;;;;;10.67;9.67;;;;;38.77;24.73;101333.47;4922312;28;45462;-70
2022/05/20 09:00:49;;;;;;;;;10.33;10.33;;;;;38.84;24.26;101217.31;4930466;28;45576;-70
2022/05/20 09:03:16;;;;;;;;;10.00;7.00;;;;;38.87;25.01;101155.97;4934048;28;45508;-71
2022/05/20 09:05:43;;;;;;;;;13.33;11.33;;;;;39.09;24.86;101193.66;4907361;28;45336;-71
2022/05/20 09:08:17;;;;;;;;;12.00;11.00;;;;;39.06;25.17;101215.25;4915212;28;45400;-70
2022/05/20 09:10:49;;;;;;;;;14.33;13.33;;;;;39.10;25.63;101214.84;4933964;28;45466;-71
2022/05/20 09:13:23;;;;;;;;;12.33;12.33;;;;;39.11;24.40;101210.16;4907779;28;46580;-68
2022/05/20 09:16:05;;;;;;;;;13.33;13.33;;;;;39.18;25.10;101205.78;4917372;28;45559;-70
2022/05/20 09:18:42;;;;;;;;;15.33;14.00;;;;;39.16;24.70;101193.97;4926179;28;45442;-70
2022/05/20 09:21:15;;;;;;;;;14.67;14.67;;;;;39.31;25.38;101188.84;4921993;28;45552;-68
2022/05/20 09:23:50;;;;;;;;;12.67;11.00;;;;;39.54;25.11;101189.38;4931639;28;45525;-70
2022/05/20 09:26:23;;;;;;;;;16.67;16.67;;;;;39.23;25.07;101205.38;4913055;28;45738;-69
2022/05/20 09:29:07;;;;;;;;;17.67;13.67;;;;;39.26;24.94;101182.88;4939853;28;45422;-70
2022/05/20 09:31:43;;;;;;;;;17.33;15.00;;;;;39.58;25.00;101184.38;4920476;28;45521;-70
2022/05/20 09:34:19;;;;;;;;;19.33;16.67;;;;;39.77;24.15;101169.59;4924945;28;46194;-72
2022/05/20 09:36:47;;;;;;;;;17.67;17.67;;;;;39.89;24.36;101170.28;4917387;28;45446;-70
2022/05/20 09:39:21;;;;;;;;;16.00;14.67;;;;;39.86;24.04;101171.47;4931254;28;45590;-70
2022/05/20 09:41:52;;;;;;;;;16.00;14.00;;;;;39.77;24.54;101169.59;4925058;28;45463;-71
2022/05/20 09:44:22;;;;;;;;;14.67;13.67;;;;;39.79;23.74;101211.97;4930460;28;46467;-69
2022/05/20 09:46:52;;;;;;;;;18.33;17.67;;;;;39.61;24.67;101273.88;4923909;28;45484;-67
2022/05/20 09:49:37;;;;;;;;;48.00;37.33;;;;;39.35;24.46;101328.22;4919093;28;45575;-67
2022/05/20 09:52:03;;;;;;;;;19.67;17.33;;;;;39.05;25.17;101318.97;4922639;28;45376;-68
2022/05/20 09:54:32;;;;;;;;;21.00;17.67;;;;;39.23;25.29;101213.69;4928155;28;45447;-67
2022/05/20 09:57:04;;;;;;;;;23.00;20.33;;;;;39.56;25.51;101081.81;4905130;28;45422;-67
2022/05/20 09:59:38;;;;;;;;;17.33;17.33;;;;;39.65;25.24;101037.50;4933812;28;45402;-67
2022/05/20 10:02:21;;;;;;;;;18.00;17.33;;;;;39.90;25.13;101103.47;4913686;28;45491;-69
2022/05/20 10:04:52;;;;;;;;;16.00;16.00;;;;;39.72;24.81;101127.50;4907795;28;46082;-71
2022/05/20 10:07:29;;;;;;;;;16.67;16.67;;;;;39.76;24.88;101123.41;4930073;28;45868;-71
2022/05/20 10:10:02;;;;;;;;;17.00;16.33;;;;;40.16;24.69;101096.31;4900343;28;45539;-70
2022/05/20 10:12:34;;;;;;;;;16.00;16.00;;;;;40.39;24.72;101077.28;4902539;28;45524;-68
2022/05/20 10:15:17;;;;;;;;;21.67;19.67;;;;;40.61;24.22;101090.72;4901756;28;46336;-71
2022/05/20 10:17:54;;;;;;;;;20.33;17.00;;;;;40.69;24.07;101091.81;4908141;28;45395;-75
2022/05/20 10:20:29;;;;;;;;;18.33;18.33;;;;;40.73;24.26;101099.69;4932590;28;45416;-76
2022/05/20 10:23:18;;;;;;;;;21.00;17.67;;;;;40.86;24.07;101120.66;4911095;28;45570;-76
2022/05/20 10:25:53;;;;;;;;;18.00;16.00;;;;;40.73;23.65;101135.84;4912309;28;45555;-76
2022/05/20 10:34:12;;;;;;;;;25.33;21.00;;;;;40.58;24.22;101135.53;4900038;28;45479;-76
2022/05/20 10:36:50;;;;;;;;;21.33;19.00;;;;;40.43;24.26;101128.75;4897501;28;45507;-76
2022/05/20 10:39:37;;;;;;;;;22.33;19.33;;;;;40.40;24.32;101127.16;4895959;28;45476;-75
2022/05/20 10:42:12;;;;;;;;;19.33;18.67;;;;;40.55;24.65;101115.50;4896320;28;45550;-75
2022/05/20 10:48:36;;;;;;;;;20.00;17.33;;;;;40.79;24.10;101109.31;4901379;28;45653;-76
2022/05/20 10:51:01;;;;;;;;;24.33;20.33;;;;;40.98;24.23;101106.34;4883224;28;45952;-75
2022/05/20 10:53:37;;;;;;;;;24.33;21.67;;;;;40.98;23.49;101100.78;4885830;28;45625;-75
2022/05/20 10:56:27;;;;;;;;;17.00;17.00;;;;;41.03;23.67;101080.84;4885362;28;45433;-76
2022/05/20 10:58:55;;;;;;;;;21.33;20.33;;;;;41.10;23.88;101072.69;4896972;28;45975;-76
2022/05/20 11:01:23;;;;;;;;;26.33;23.33;;;;;41.22;23.55;101070.53;4899123;28;45464;-76
2022/05/20 11:04:19;;;;;;;;;19.67;19.67;;;;;41.23;23.69;101061.13;4891299;28;45458;-75
2022/05/20 11:07:12;;;;;;;;;24.33;21.67;;;;;41.51;23.42;101075.75;4901024;28;45575;-75
2022/05/20 11:09:59;;;;;;;;;24.33;23.67;;;;;41.56;23.37;101073.34;4920934;28;46703;-74
2022/05/20 11:12:43;;;;;;;;;19.67;18.33;;;;;41.79;23.42;101089.50;4910465;28;45401;-75
2022/05/20 11:15:21;;;;;;;;;19.33;19.33;;;;;41.90;23.20;101103.13;4912597;28;45635;-76
2022/05/20 11:18:02;;;;;;;;;24.33;20.00;;;;;41.86;22.91;101112.88;4881623;28;45825;-76
2022/05/20 11:21:01;;;;;;;;;22.00;22.00;;;;;41.78;22.90;101115.63;4925316;28;46169;-76
2022/05/20 11:23:41;;;;;;;;;12.33;10.00;;;;;41.89;23.41;101131.16;4947668;28;45900;-76
2022/05/20 11:26:25;;;;;;;;;21.67;21.33;;;;;41.83;23.07;101146.63;4953290;28;45432;-76
2022/05/20 11:29:12;;;;;;;;;25.00;22.00;;;;;41.66;23.36;101162.34;4912881;28;45968;-75
2022/05/20 11:31:46;;;;;;;;;28.33;27.33;;;;;41.62;23.29;101161.81;4883191;28;45536;-75
2022/05/20 11:34:45;;;;;;;;;24.00;23.67;;;;;41.49;23.57;101164.16;4890462;28;45405;-75
2022/05/20 11:37:39;;;;;;;;;25.67;24.33;;;;;41.59;23.30;101167.72;4894453;28;45519;-76
2022/05/20 11:40:38;;;;;;;;;27.00;25.67;;;;;41.62;23.34;101161.81;4936327;28;46613;-75
2022/05/20 11:43:13;;;;;;;;;31.33;29.00;;;;;41.58;23.57;101138.13;4911333;28;45539;-75
2022/05/20 11:45:58;;;;;;;;;41.00;35.67;;;;;41.77;23.21;101158.41;4888953;28;45874;-75
2022/05/20 11:48:39;;;;;;;;;37.33;32.67;;;;;41.85;23.24;101150.13;4897744;28;45925;-75
2022/05/20 11:51:10;;;;;;;;;40.00;34.00;;;;;41.78;23.53;101147.13;4926897;28;45601;-66
2022/05/20 11:53:46;;;;;;;;;37.33;32.67;;;;;41.74;23.66;101153.16;4911013;28;45604;-67
2022/05/20 11:56:21;;;;;;;;;33.00;31.00;;;;;41.84;23.41;101145.59;4928251;28;45682;-66
2022/05/20 11:59:06;;;;;;;;;31.00;28.67;;;;;41.85;23.34;101143.69;4900848;28;45472;-69
2022/05/20 12:01:34;;;;;;;;;30.33;30.00;;;;;41.94;23.32;101146.34;4894148;28;45382;-70
2022/05/20 12:04:08;;;;;;;;;33.33;31.33;;;;;41.75;23.96;101129.84;4926006;28;46016;-68
2022/05/20 12:06:56;;;;;;;;;15.67;13.00;;;;;41.85;23.94;101122.25;4920659;28;45193;-68